DIAP

Port Bouet Airport

Abidjan, Côte D’Ivoire
METAR DIAP 250030Z 24007KT 9999 FEW012 29/25 Q1011 NOSIG
Observed Flight Rules
Apr-25 @ 00:30 UTC (17 minutes ago) Visual Flight Rules
Wind Visibility Clouds
240° at 7 knots 10,000+ meters
  • Few at 1,200' AGL
Temperatures Readings
Current 29°C / 84°F
Dewpoint 25°C / 77°F
Humidity 79%
Altimeter 29.85" Hg
Pressure 1011 hPa
Elevation 8
METAR DIAP 250030Z 24007KT 9999 FEW012 29/25 Q1011 NOSIG
Observed Flight Rules
Apr-25 @ 00:30 UTC
(17 minutes ago)
VFR
Wind Visibility
240° at 7 knots 10,000+ meters
Clouds
  • Few at 1,200' AGL
Temperature Dewpoint
29°C / 84°F 25°C / 77°F
Humidity Altimeter Pressure
79% 29.85" Hg 1011 hPa